Time;durP1;ratioP1;P1;durP2;ratioP2;P2;SDS_P1;SDS_P2;PMS_P1;PMS_P2;Temp;Humidity;BMP_temperature;BMP_pressure;BME280_temperature;BME280_humidity;BME280_pressure;Samples;Min_cycle;Max_cycle;Signal;HPM_P1;HPM_P2
2023/05/17 04:02:56;;;;;;;0.60;0.10;;;10.70;2.70;;;;;;4949850;29;20472;-70
2023/05/17 04:05:24;;;;;;;0.60;0.10;;;10.60;3.40;;;;;;4954562;29;20442;-70
2023/05/17 04:07:52;;;;;;;0.60;0.10;;;10.60;3.50;;;;;;4954904;29;20440;-71
2023/05/17 04:10:20;;;;;;;0.60;0.10;;;10.60;4.50;;;;;;4952111;29;20530;-70
2023/05/17 04:12:48;;;;;;;0.60;0.10;;;10.60;5.00;;;;;;4936011;29;20518;-70
2023/05/17 04:15:16;;;;;;;0.60;0.10;;;10.60;5.30;;;;;;5019128;23;20499;-73
2023/05/17 04:17:44;;;;;;;0.60;0.10;;;10.60;4.40;;;;;;5032581;28;20486;-74
2023/05/17 04:20:14;;;;;;;0.60;0.10;;;10.60;5.10;;;;;;5034616;28;20452;-72
2023/05/17 04:22:42;;;;;;;2.30;0.83;;;10.70;5.50;;;;;;5037478;28;20534;-73
2023/05/17 04:25:10;;;;;;;0.60;0.10;;;10.70;5.50;;;;;;5040498;28;20494;-75
2023/05/17 04:27:38;;;;;;;0.60;0.10;;;10.70;5.30;;;;;;5034173;28;20509;-74
2023/05/17 04:30:08;;;;;;;0.60;0.10;;;10.60;5.60;;;;;;5017659;28;20893;-74
2023/05/17 04:32:36;;;;;;;0.60;0.37;;;10.70;5.60;;;;;;5029847;28;20991;-75
2023/05/17 04:35:05;;;;;;;0.60;0.10;;;10.70;5.30;;;;;;5028250;28;20582;-75
2023/05/17 04:37:34;;;;;;;0.60;0.10;;;10.70;5.20;;;;;;5031953;28;20518;-74
2023/05/17 04:40:02;;;;;;;0.60;0.10;;;10.70;5.10;;;;;;5032143;28;20951;-72
2023/05/17 04:42:30;;;;;;;0.60;0.10;;;10.70;6.00;;;;;;5029917;28;20462;-74
2023/05/17 04:44:58;;;;;;;0.60;0.10;;;10.70;5.10;;;;;;5032133;28;20985;-74
2023/05/17 04:47:26;;;;;;;0.60;0.10;;;10.70;5.10;;;;;;5032781;28;20506;-74
2023/05/17 04:49:55;;;;;;;0.60;0.10;;;10.70;5.70;;;;;;5032854;28;20447;-73
2023/05/17 04:52:22;;;;;;;0.60;0.10;;;10.70;5.70;;;;;;5029312;28;21002;-75
2023/05/17 04:54:52;;;;;;;0.60;0.10;;;10.70;5.90;;;;;;5028753;28;20470;-72
2023/05/17 04:57:20;;;;;;;0.60;0.10;;;10.70;5.60;;;;;;5032001;28;20575;-73
2023/05/17 04:59:48;;;;;;;0.70;0.50;;;10.70;5.80;;;;;;5030939;28;20455;-73
2023/05/17 05:02:16;;;;;;;0.60;0.10;;;10.70;5.20;;;;;;5022725;28;20506;-74
2023/05/17 05:04:44;;;;;;;0.60;0.10;;;10.70;5.80;;;;;;5014809;28;20509;-74
2023/05/17 05:07:12;;;;;;;0.60;0.10;;;10.70;5.70;;;;;;5024076;28;20467;-73
2023/05/17 05:09:39;;;;;;;0.60;0.10;;;10.70;6.00;;;;;;5031612;28;20451;-74
2023/05/17 05:12:09;;;;;;;0.90;0.20;;;10.70;6.50;;;;;;5031377;28;21009;-73
2023/05/17 05:14:37;;;;;;;0.60;0.10;;;10.80;6.60;;;;;;5030777;28;20477;-75
2023/05/17 05:17:05;;;;;;;0.60;0.20;;;10.80;7.20;;;;;;5030761;28;20950;-73
2023/05/17 05:19:33;;;;;;;0.60;0.10;;;10.90;6.80;;;;;;5033301;28;20443;-73
2023/05/17 05:22:01;;;;;;;0.60;0.10;;;10.90;7.00;;;;;;5027803;28;20449;-73
2023/05/17 05:24:29;;;;;;;0.60;0.10;;;11.00;6.40;;;;;;5029652;28;20458;-73
2023/05/17 05:26:57;;;;;;;0.60;0.10;;;11.00;7.20;;;;;;5032653;28;20527;-72
2023/05/17 05:29:26;;;;;;;0.60;0.10;;;11.00;6.40;;;;;;5032226;28;20523;-71
2023/05/17 05:31:54;;;;;;;0.60;0.10;;;11.00;7.00;;;;;;5030519;28;20443;-72
2023/05/17 05:34:22;;;;;;;0.60;0.10;;;11.00;6.40;;;;;;5034870;28;20521;-75
2023/05/17 05:36:50;;;;;;;0.60;0.10;;;11.00;6.80;;;;;;5036118;28;20546;-73
2023/05/17 05:39:18;;;;;;;0.60;0.10;;;11.00;8.10;;;;;;5036680;28;20463;-75
2023/05/17 05:41:46;;;;;;;0.60;0.10;;;11.00;7.70;;;;;;5035545;28;20540;-72
2023/05/17 05:44:14;;;;;;;0.60;0.10;;;11.10;7.50;;;;;;5035358;28;20475;-73
2023/05/17 05:46:43;;;;;;;0.60;0.13;;;11.00;7.10;;;;;;5035884;28;20445;-72
2023/05/17 05:49:11;;;;;;;0.60;0.10;;;11.10;7.90;;;;;;5025546;28;20890;-74
2023/05/17 05:51:39;;;;;;;0.60;0.10;;;11.10;7.90;;;;;;5033981;28;20487;-74
2023/05/17 05:54:07;;;;;;;0.60;0.10;;;11.20;7.80;;;;;;5045619;28;20458;-75
2023/05/17 05:56:34;;;;;;;0.60;0.10;;;11.20;8.20;;;;;;5043781;28;20486;-74
2023/05/17 05:59:02;;;;;;;0.60;0.10;;;11.20;8.20;;;;;;5040939;28;20529;-73
2023/05/17 06:01:30;;;;;;;0.60;0.10;;;11.20;8.50;;;;;;5057540;28;21023;-73
2023/05/17 06:03:59;;;;;;;0.60;0.10;;;11.30;8.40;;;;;;5055663;28;20526;-73
2023/05/17 06:06:27;;;;;;;0.60;0.10;;;11.40;8.70;;;;;;5041334;28;20478;-74
2023/05/17 06:08:56;;;;;;;0.60;0.10;;;11.50;8.30;;;;;;5036670;28;20489;-73
2023/05/17 06:11:26;;;;;;;0.60;0.10;;;11.50;7.70;;;;;;5034614;28;20489;-72
2023/05/17 06:13:54;;;;;;;2.23;2.03;;;11.50;7.80;;;;;;5034549;28;20476;-73
2023/05/17 06:16:22;;;;;;;0.60;0.10;;;;;;;;;;5034952;28;20476;-74
2023/05/17 06:18:50;;;;;;;0.60;0.10;;;11.60;7.60;;;;;;5034974;28;20484;-73
2023/05/17 06:21:20;;;;;;;0.60;0.10;;;11.60;8.40;;;;;;5036827;28;20431;-74
2023/05/17 06:23:48;;;;;;;0.60;0.10;;;11.60;7.70;;;;;;5037853;28;20483;-74
2023/05/17 06:26:15;;;;;;;0.60;0.10;;;11.70;8.30;;;;;;5027529;28;20539;-74
2023/05/17 06:28:43;;;;;;;0.60;0.10;;;11.70;8.40;;;;;;5017299;28;20952;-74
2023/05/17 06:31:11;;;;;;;0.60;0.20;;;11.70;8.80;;;;;;5016907;28;20886;-73
2023/05/17 06:33:39;;;;;;;0.60;0.10;;;11.80;9.10;;;;;;5015336;28;20454;-75
2023/05/17 06:36:07;;;;;;;0.80;0.80;;;11.80;10.40;;;;;;5015562;28;20442;-74
2023/05/17 06:38:37;;;;;;;0.60;0.10;;;11.80;10.10;;;;;;5017162;28;20813;-75
2023/05/17 06:41:04;;;;;;;0.70;0.57;;;11.90;9.90;;;;;;5018744;28;20465;-75
2023/05/17 06:43:32;;;;;;;0.60;0.10;;;12.00;9.30;;;;;;5016941;28;20445;-74
2023/05/17 06:46:03;;;;;;;0.60;0.10;;;12.10;8.40;;;;;;5015709;28;20532;-75
2023/05/17 06:48:31;;;;;;;0.60;0.10;;;12.00;8.80;;;;;;5017031;28;20472;-74
2023/05/17 06:50:59;;;;;;;0.60;0.10;;;12.10;8.80;;;;;;5016955;28;20453;-75
2023/05/17 06:53:27;;;;;;;0.60;0.10;;;12.10;8.70;;;;;;5030500;28;20464;-74
2023/05/17 06:55:57;;;;;;;0.60;0.10;;;12.20;7.20;;;;;;5033129;28;20530;-75
2023/05/17 06:58:25;;;;;;;0.60;0.10;;;12.10;6.20;;;;;;5023361;28;20529;-74
2023/05/17 07:00:53;;;;;;;0.60;0.10;;;12.20;7.20;;;;;;5024707;28;20532;-73
2023/05/17 07:03:21;;;;;;;0.60;0.10;;;12.30;4.50;;;;;;5040376;28;20477;-74
2023/05/17 07:05:49;;;;;;;0.60;0.10;;;12.30;4.40;;;;;;5038282;28;20933;-73
2023/05/17 07:08:17;;;;;;;0.60;0.10;;;12.30;4.50;;;;;;5040723;28;20525;-74
2023/05/17 07:10:45;;;;;;;0.60;0.17;;;12.40;3.00;;;;;;5037773;28;20882;-73
2023/05/17 07:13:14;;;;;;;0.60;0.10;;;12.50;3.30;;;;;;5040684;28;20793;-73
2023/05/17 07:15:43;;;;;;;0.60;0.10;;;12.50;3.00;;;;;;5038755;28;20473;-73
2023/05/17 07:18:11;;;;;;;0.60;0.10;;;12.60;2.20;;;;;;5040318;28;20553;-73
2023/05/17 07:20:39;;;;;;;0.60;0.10;;;12.60;1.60;;;;;;5031754;28;20456;-73
2023/05/17 07:23:07;;;;;;;0.60;0.10;;;12.60;1.60;;;;;;5033792;28;20924;-74
2023/05/17 07:25:37;;;;;;;0.60;0.10;;;12.50;2.40;;;;;;5036007;28;20460;-73
2023/05/17 07:28:06;;;;;;;0.60;0.10;;;12.60;1.90;;;;;;5016397;28;20499;-73
2023/05/17 07:30:35;;;;;;;0.60;0.10;;;12.60;3.00;;;;;;5015761;28;20445;-75
2023/05/17 07:33:03;;;;;;;0.60;0.10;;;12.70;2.90;;;;;;5013517;28;20494;-74
2023/05/17 07:35:31;;;;;;;0.60;0.10;;;12.90;1.30;;;;;;5015406;28;20470;-73
2023/05/17 07:37:59;;;;;;;0.60;0.10;;;13.00;1.00;;;;;;5014537;28;20489;-74
2023/05/17 07:40:27;;;;;;;0.60;0.10;;;13.20;1.00;;;;;;5014596;28;20879;-74
2023/05/17 07:42:55;;;;;;;0.60;0.30;;;13.20;5.20;;;;;;5026465;28;20457;-74
2023/05/17 07:45:22;;;;;;;0.60;0.10;;;13.30;1.00;;;;;;5034730;28;20478;-74
2023/05/17 07:47:52;;;;;;;0.60;0.10;;;13.40;1.00;;;;;;5035591;28;20492;-76
2023/05/17 07:50:20;;;;;;;0.60;0.10;;;13.40;1.00;;;;;;5035286;28;20461;-74
2023/05/17 07:52:48;;;;;;;0.60;0.10;;;13.30;1.00;;;;;;5024783;28;20448;-74
2023/05/17 07:55:16;;;;;;;0.60;0.10;;;13.20;1.00;;;;;;5022071;28;20467;-74
2023/05/17 07:57:46;;;;;;;0.60;0.10;;;13.20;1.00;;;;;;5034486;28;20477;-74
2023/05/17 08:00:18;;;;;;;0.60;0.10;;;13.20;1.00;;;;;;5034018;28;20449;-74
2023/05/17 08:02:45;;;;;;;0.60;0.20;;;13.20;1.00;;;;;;5033579;28;20652;-75
2023/05/17 08:05:15;;;;;;;0.60;0.30;;;13.10;1.00;;;;;;5027419;28;20484;-74
2023/05/17 08:07:43;;;;;;;0.60;0.20;;;13.00;1.00;;;;;;5034064;28;20981;-73
2023/05/17 08:10:11;;;;;;;0.60;0.10;;;13.00;1.00;;;;;;5035696;28;20556;-73
2023/05/17 08:12:39;;;;;;;0.90;0.40;;;13.00;1.00;;;;;;5032888;28;20439;-74
2023/05/17 08:15:08;;;;;;;0.60;0.20;;;13.10;1.00;;;;;;5042564;28;20476;-73
2023/05/17 08:17:36;;;;;;;0.60;0.10;;;13.10;1.00;;;;;;5055323;28;20523;-73
2023/05/17 08:20:06;;;;;;;0.60;0.10;;;13.20;1.00;;;;;;5053220;28;20471;-73
2023/05/17 08:22:38;;;;;;;0.60;0.10;;;13.20;1.00;;;;;;5053210;28;20964;-74
2023/05/17 08:25:07;;;;;;;0.60;0.10;;;13.20;1.00;;;;;;5043260;28;20491;-75
2023/05/17 08:27:35;;;;;;;0.60;0.20;;;13.20;1.00;;;;;;5034359;28;20451;-74
2023/05/17 08:30:04;;;;;;;1.47;0.77;;;13.20;1.00;;;;;;5036054;28;20946;-75
2023/05/17 08:32:38;;;;;;;0.60;0.10;;;13.20;3.00;;;;;;5034809;28;20476;-75
2023/05/17 08:35:07;;;;;;;0.60;0.10;;;13.10;1.00;;;;;;5033312;28;20472;-74
2023/05/17 08:37:35;;;;;;;0.60;0.10;;;13.10;1.00;;;;;;5033823;28;20442;-74
2023/05/17 08:40:06;;;;;;;0.70;0.40;;;13.10;1.00;;;;;;5034827;28;20524;-73
2023/05/17 08:42:36;;;;;;;1.77;0.40;;;13.20;3.50;;;;;;5033818;28;20771;-74
2023/05/17 08:45:09;;;;;;;0.60;0.10;;;13.30;1.00;;;;;;5032663;28;20930;-74
2023/05/17 08:47:38;;;;;;;0.60;0.10;;;13.40;1.00;;;;;;5020788;28;20533;-73
2023/05/17 08:50:07;;;;;;;0.60;0.20;;;13.60;1.00;;;;;;5014070;28;20487;-73
2023/05/17 08:52:37;;;;;;;0.60;0.10;;;13.60;1.20;;;;;;5015969;28;20441;-74
2023/05/17 08:55:08;;;;;;;0.60;0.10;;;13.70;1.00;;;;;;5030050;28;20573;-75
2023/05/17 08:57:39;;;;;;;0.60;0.13;;;13.80;1.00;;;;;;5031790;28;20936;-74
2023/05/17 09:00:11;;;;;;;0.60;0.10;;;13.80;1.00;;;;;;5031880;28;20486;-74
2023/05/17 09:02:39;;;;;;;0.60;0.10;;;13.80;1.00;;;;;;5027842;28;20503;-75
2023/05/17 09:05:09;;;;;;;0.60;0.10;;;13.90;1.00;;;;;;5012104;28;20470;-75
2023/05/17 09:07:37;;;;;;;0.60;0.10;;;14.00;1.00;;;;;;5014609;28;20482;-75
2023/05/17 09:10:08;;;;;;;0.60;0.10;;;14.00;1.00;;;;;;5035731;28;20505;-75
2023/05/17 09:12:36;;;;;;;0.60;0.10;;;13.90;1.00;;;;;;5035010;28;20450;-75
2023/05/17 09:15:18;;;;;;;0.60;0.20;;;13.80;1.00;;;;;;5035764;28;20477;-75
2023/05/17 09:17:52;;;;;;;0.60;0.10;;;13.90;1.00;;;;;;5036128;28;20492;-75
2023/05/17 09:20:24;;;;;;;0.60;0.20;;;13.80;1.00;;;;;;5014553;28;21000;-75
2023/05/17 09:22:52;;;;;;;0.60;0.10;;;13.80;1.00;;;;;;5016076;28;20966;-74
2023/05/17 09:25:24;;;;;;;0.60;0.10;;;13.80;1.00;;;;;;5016813;28;20475;-74
2023/05/17 09:27:53;;;;;;;0.60;0.20;;;13.70;1.00;;;;;;5019601;28;20597;-74
2023/05/17 09:30:27;;;;;;;0.60;0.20;;;13.70;1.00;;;;;;5018229;28;20451;-75
2023/05/17 09:32:56;;;;;;;0.60;0.10;;;13.70;1.00;;;;;;5017166;28;20461;-75
2023/05/17 09:35:29;;;;;;;0.60;0.10;;;13.70;1.00;;;;;;5017225;28;20471;-74
2023/05/17 09:38:05;;;;;;;0.60;0.10;;;13.70;1.00;;;;;;5017327;28;20447;-74
2023/05/17 09:40:38;;;;;;;0.60;0.10;;;13.70;1.00;;;;;;5016887;28;20577;-73
2023/05/17 09:43:06;;;;;;;0.60;0.10;;;13.80;1.00;;;;;;5016268;28;20517;-75
2023/05/17 09:45:35;;;;;;;0.60;0.10;;;13.90;1.00;;;;;;5015881;28;20462;-75
2023/05/17 09:48:14;;;;;;;0.60;0.10;;;14.10;1.00;;;;;;5016330;28;20485;-75
2023/05/17 09:50:46;;;;;;;0.60;0.10;;;14.50;1.00;;;;;;5016889;28;20459;-73
2023/05/17 09:53:23;;;;;;;0.60;0.10;;;14.60;1.00;;;;;;5015939;28;20554;-74
2023/05/17 09:55:54;;;;;;;0.60;0.10;;;14.60;1.00;;;;;;5015994;28;20464;-74
2023/05/17 09:58:22;;;;;;;0.60;0.10;;;14.60;1.00;;;;;;5016071;28;20438;-72
2023/05/17 10:00:53;;;;;;;0.60;0.10;;;14.70;1.00;;;;;;5016089;28;20514;-74
2023/05/17 10:03:22;;;;;;;0.60;0.10;;;14.70;1.00;;;;;;5005254;28;20449;-74
2023/05/17 10:05:52;;;;;;;0.60;0.10;;;14.80;1.00;;;;;;5005207;28;20461;-75
2023/05/17 10:08:24;;;;;;;0.60;0.10;;;14.90;1.00;;;;;;5000960;28;20456;-73
2023/05/17 10:10:56;;;;;;;0.60;0.10;;;15.00;1.00;;;;;;5001198;28;20431;-73
2023/05/17 10:13:27;;;;;;;0.60;0.20;;;15.00;1.00;;;;;;5013163;28;20464;-75
2023/05/17 10:15:56;;;;;;;0.60;0.10;;;15.00;1.00;;;;;;5019634;28;20494;-76
2023/05/17 10:18:24;;;;;;;0.60;0.10;;;15.10;1.00;;;;;;5020915;28;20959;-75
2023/05/17 10:20:53;;;;;;;0.60;0.10;;;15.10;1.00;;;;;;5018875;28;20478;-75
2023/05/17 10:23:21;;;;;;;0.60;0.10;;;15.10;1.00;;;;;;5004641;28;20490;-75
2023/05/17 10:25:50;;;;;;;0.60;0.20;;;15.20;1.00;;;;;;5018253;28;20552;-75
2023/05/17 10:28:20;;;;;;;0.60;0.10;;;15.30;1.00;;;;;;5020325;28;20475;-75
2023/05/17 10:30:51;;;;;;;0.60;0.10;;;15.30;1.00;;;;;;5027641;28;20440;-74
2023/05/17 10:33:20;;;;;;;0.60;0.10;;;15.50;1.00;;;;;;5022892;28;20543;-75
2023/05/17 10:35:50;;;;;;;0.63;0.10;;;15.70;1.00;;;;;;5005647;28;20556;-75
2023/05/17 10:38:19;;;;;;;0.60;0.10;;;15.70;1.00;;;;;;5010341;28;20464;-76
2023/05/17 10:40:53;;;;;;;0.60;0.10;;;15.80;1.00;;;;;;5012540;28;20473;-74
2023/05/17 10:43:24;;;;;;;0.60;0.20;;;15.70;1.00;;;;;;5017353;28;20796;-74
2023/05/17 10:45:53;;;;;;;0.67;0.27;;;15.60;1.00;;;;;;5019960;28;20445;-76
2023/05/17 10:48:21;;;;;;;0.60;0.10;;;15.50;1.00;;;;;;5010330;28;20527;-76
2023/05/17 10:50:50;;;;;;;0.60;0.10;;;15.40;1.00;;;;;;5016223;28;20456;-76
2023/05/17 10:53:28;;;;;;;0.60;0.10;;;15.40;1.00;;;;;;4995832;28;20469;-75
2023/05/17 10:55:57;;;;;;;1.20;1.03;;;15.40;1.00;;;;;;4996421;28;20834;-75
2023/05/17 10:58:28;;;;;;;0.60;0.20;;;15.50;1.00;;;;;;4995738;28;20550;-76
2023/05/17 11:00:56;;;;;;;0.60;0.10;;;15.50;1.00;;;;;;4996191;28;21046;-75
2023/05/17 11:03:28;;;;;;;0.60;0.10;;;15.60;1.00;;;;;;5002569;28;20448;-74
2023/05/17 11:06:21;;;;;;;0.60;0.10;;;15.60;1.00;;;;;;5015340;28;20540;-73
2023/05/17 11:09:13;;;;;;;1.20;0.60;;;15.60;1.00;;;;;;4990079;28;20449;-74
2023/05/17 11:12:03;;;;;;;0.87;0.27;;;15.60;1.00;;;;;;5010572;28;20461;-75
2023/05/17 11:14:47;;;;;;;0.70;0.30;;;15.50;1.00;;;;;;4994924;28;20573;-73
2023/05/17 11:17:17;;;;;;;0.60;0.20;;;15.40;1.00;;;;;;4994955;28;20440;-75
2023/05/17 11:20:27;;;;;;;0.60;0.10;;;15.30;1.00;;;;;;5017255;28;20475;-75
2023/05/17 11:22:57;;;;;;;0.60;0.10;;;15.40;1.00;;;;;;4994819;28;21013;-76
2023/05/17 11:25:28;;;;;;;0.60;0.10;;;15.60;1.00;;;;;;5014380;28;20465;-77
2023/05/17 11:27:58;;;;;;;0.80;0.60;;;15.70;1.00;;;;;;5014257;28;20942;-74
2023/05/17 11:30:29;;;;;;;0.60;0.10;;;15.70;1.00;;;;;;5014441;28;20457;-74
2023/05/17 11:32:59;;;;;;;0.60;0.13;;;15.70;1.00;;;;;;5027951;28;20506;-77
2023/05/17 11:35:30;;;;;;;0.60;0.10;;;15.90;1.00;;;;;;5009017;28;20484;-74
2023/05/17 11:38:14;;;;;;;0.80;0.53;;;15.90;1.00;;;;;;5014767;28;20449;-75
2023/05/17 11:40:43;;;;;;;0.60;0.10;;;16.00;1.00;;;;;;5013371;28;21026;-75
2023/05/17 11:43:12;;;;;;;0.60;0.10;;;16.00;1.00;;;;;;5014516;28;20483;-74
2023/05/17 11:45:47;;;;;;;0.60;0.20;;;16.10;1.00;;;;;;5016800;28;21058;-76
2023/05/17 11:48:20;;;;;;;0.60;0.10;;;16.20;1.00;;;;;;5015316;28;20518;-75
2023/05/17 11:50:50;;;;;;;0.60;0.10;;;16.20;1.00;;;;;;5006747;28;20476;-74
2023/05/17 11:53:19;;;;;;;0.60;0.10;;;16.10;1.00;;;;;;5008069;28;20526;-75
2023/05/17 11:55:50;;;;;;;0.60;0.10;;;15.90;1.00;;;;;;5022369;28;21020;-75
2023/05/17 11:58:24;;;;;;;0.60;0.10;;;15.80;1.00;;;;;;5011667;28;20470;-75
2023/05/17 12:00:55;;;;;;;0.60;0.10;;;15.80;1.00;;;;;;5015310;28;20579;-75
2023/05/17 12:03:24;;;;;;;0.60;0.10;;;;;;;;;;5015632;28;20467;-75
2023/05/17 12:06:02;;;;;;;0.60;0.10;;;16.00;1.00;;;;;;5019979;28;20452;-75
2023/05/17 12:08:33;;;;;;;0.70;0.20;;;16.10;1.00;;;;;;5015057;28;20469;-75
2023/05/17 12:11:01;;;;;;;0.60;0.20;;;;;;;;;;5008544;28;20991;-76
2023/05/17 12:13:30;;;;;;;0.60;0.20;;;16.30;1.00;;;;;;5014513;28;20470;-76
2023/05/17 12:16:01;;;;;;;0.60;0.10;;;16.40;1.00;;;;;;5016029;28;20434;-75
2023/05/17 12:18:39;;;;;;;0.60;0.20;;;16.40;1.00;;;;;;5018355;28;20605;-74
2023/05/17 12:21:09;;;;;;;0.60;0.10;;;16.60;1.00;;;;;;5015223;28;20847;-74
2023/05/17 12:23:39;;;;;;;0.60;0.10;;;16.60;1.00;;;;;;5011931;28;20476;-76
2023/05/17 12:26:10;;;;;;;0.60;0.10;;;16.80;1.00;;;;;;5006061;28;20459;-76
2023/05/17 12:28:40;;;;;;;0.60;0.10;;;16.90;1.00;;;;;;5016315;28;20497;-76
2023/05/17 12:31:11;;;;;;;0.60;0.20;;;16.80;1.00;;;;;;5022933;28;20440;-75
2023/05/17 12:33:41;;;;;;;0.70;0.30;;;16.40;1.00;;;;;;5018696;28;20827;-75
2023/05/17 12:36:11;;;;;;;0.60;0.10;;;16.30;1.00;;;;;;5014159;28;20485;-76
2023/05/17 12:38:40;;;;;;;13.60;1.13;;;16.40;1.00;;;;;;5012831;28;20529;-75
2023/05/17 12:41:11;;;;;;;0.60;0.10;;;16.30;1.00;;;;;;5012463;28;20539;-76
2023/05/17 12:43:40;;;;;;;0.90;0.20;;;16.30;1.00;;;;;;4995554;28;20824;-77
2023/05/17 12:46:11;;;;;;;0.60;0.10;;;16.40;1.00;;;;;;4994510;28;20502;-76
2023/05/17 12:48:41;;;;;;;0.60;0.10;;;16.20;1.00;;;;;;4994370;28;20955;-76
2023/05/17 12:51:11;;;;;;;0.60;0.20;;;16.30;1.00;;;;;;4999780;28;20453;-76
2023/05/17 12:53:40;;;;;;;0.90;0.60;;;16.30;1.00;;;;;;4996466;28;20453;-76
2023/05/17 12:56:14;;;;;;;0.60;0.10;;;16.40;1.00;;;;;;4993905;28;20535;-76
2023/05/17 12:58:42;;;;;;;0.60;0.20;;;16.50;1.00;;;;;;4993317;28;20459;-75
2023/05/17 13:01:13;;;;;;;0.60;0.10;;;16.40;1.00;;;;;;4993368;28;20486;-76
2023/05/17 13:03:41;;;;;;;3.27;2.37;;;16.40;1.00;;;;;;4992713;28;20485;-76
2023/05/17 13:06:10;;;;;;;0.60;0.10;;;16.50;1.00;;;;;;5003813;28;20579;-74
2023/05/17 13:08:38;;;;;;;0.60;0.10;;;16.40;1.00;;;;;;5012454;28;20443;-77
2023/05/17 13:11:07;;;;;;;1.07;0.33;;;16.30;1.00;;;;;;5012191;28;20814;-74
2023/05/17 13:13:36;;;;;;;1.57;0.40;;;16.40;1.00;;;;;;5011714;28;20494;-75
2023/05/17 13:16:04;;;;;;;0.60;0.20;;;16.40;1.00;;;;;;5012920;28;20819;-75
2023/05/17 13:18:47;;;;;;;0.60;0.20;;;16.30;1.00;;;;;;5011824;28;20461;-74
2023/05/17 13:21:16;;;;;;;0.60;0.23;;;16.40;1.00;;;;;;5014188;28;20491;-76
2023/05/17 13:23:44;;;;;;;0.60;0.10;;;16.40;1.00;;;;;;5012278;28;20564;-74
2023/05/17 13:26:12;;;;;;;0.60;0.20;;;16.50;1.00;;;;;;5012081;28;20486;-73
2023/05/17 13:28:41;;;;;;;0.90;0.50;;;16.50;1.00;;;;;;5011989;28;20516;-76
2023/05/17 13:31:08;;;;;;;0.80;0.70;;;16.60;1.00;;;;;;5012733;28;20868;-74
2023/05/17 13:33:36;;;;;;;0.60;0.10;;;16.70;1.00;;;;;;4995293;28;20494;-76
2023/05/17 13:36:06;;;;;;;0.60;0.20;;;16.80;1.00;;;;;;4993458;28;20447;-75
2023/05/17 13:38:35;;;;;;;0.60;0.10;;;16.70;1.00;;;;;;4992629;28;20497;-73
2023/05/17 13:41:03;;;;;;;0.60;0.20;;;16.60;1.00;;;;;;5009143;28;20545;-76
2023/05/17 13:43:31;;;;;;;0.60;0.20;;;16.80;1.00;;;;;;5008578;28;20470;-76
2023/05/17 13:45:58;;;;;;;0.60;0.10;;;16.80;1.00;;;;;;5014488;28;20446;-74
2023/05/17 13:48:26;;;;;;;2.70;0.80;;;16.80;1.00;;;;;;5012333;28;20459;-75
2023/05/17 13:50:55;;;;;;;0.60;0.10;;;16.70;1.00;;;;;;5013718;28;20925;-74
2023/05/17 13:53:24;;;;;;;1.27;0.50;;;16.80;1.00;;;;;;5010181;28;20472;-69
2023/05/17 13:55:52;;;;;;;0.60;0.10;;;16.90;1.00;;;;;;5011013;28;20520;-74
2023/05/17 13:58:20;;;;;;;0.60;0.20;;;17.00;1.00;;;;;;5024552;28;20578;-74
2023/05/17 14:00:49;;;;;;;0.60;0.10;;;17.10;1.00;;;;;;5015654;28;20447;-74
2023/05/17 14:03:17;;;;;;;3.23;0.30;;;17.20;1.00;;;;;;5005647;28;20863;-75
2023/05/17 14:05:48;;;;;;;0.60;0.10;;;;;;;;;;5009378;28;20495;-75
2023/05/17 14:08:16;;;;;;;1.10;0.73;;;17.10;1.00;;;;;;5007718;28;20480;-74
2023/05/17 14:10:46;;;;;;;0.60;0.10;;;17.00;1.00;;;;;;5006948;28;20484;-75
2023/05/17 14:13:14;;;;;;;0.60;0.10;;;17.20;1.00;;;;;;5005905;28;20446;-76
2023/05/17 14:15:42;;;;;;;0.60;0.10;;;17.40;1.00;;;;;;5006354;28;20472;-76
2023/05/17 14:18:10;;;;;;;0.60;0.10;;;17.60;1.00;;;;;;5024459;28;20540;-75
2023/05/17 14:20:38;;;;;;;0.60;0.20;;;17.80;1.00;;;;;;5021489;28;20440;-75
2023/05/17 14:23:06;;;;;;;0.80;0.23;;;17.80;1.00;;;;;;5015066;28;20576;-75
2023/05/17 14:25:33;;;;;;;0.60;0.10;;;17.90;1.00;;;;;;5015408;28;20558;-75
2023/05/17 14:28:03;;;;;;;0.70;0.40;;;17.90;1.00;;;;;;5015556;28;20452;-75
2023/05/17 14:30:31;;;;;;;0.60;0.10;;;17.90;1.00;;;;;;5016890;28;20559;-74
2023/05/17 14:32:59;;;;;;;0.60;0.10;;;18.00;1.00;;;;;;5004949;28;20774;-75
2023/05/17 14:35:29;;;;;;;0.60;0.20;;;18.10;1.00;;;;;;5004211;28;20845;-75
2023/05/17 14:37:57;;;;;;;0.60;0.10;;;18.20;1.00;;;;;;5003895;28;20533;-75
2023/05/17 14:40:25;;;;;;;0.70;0.30;;;18.30;1.00;;;;;;5002956;28;21034;-76
2023/05/17 14:42:53;;;;;;;0.60;0.17;;;18.30;1.00;;;;;;5014027;28;20479;-75
2023/05/17 14:45:22;;;;;;;0.60;0.20;;;18.20;1.00;;;;;;5018093;28;20513;-74
2023/05/17 14:47:50;;;;;;;0.60;0.10;;;18.10;1.00;;;;;;5013757;23;20913;-70
2023/05/17 14:50:18;;;;;;;0.60;0.10;;;18.20;1.00;;;;;;4971731;28;20469;-69
2023/05/17 14:52:46;;;;;;;0.60;0.10;;;18.20;1.00;;;;;;4968964;28;20455;-69
2023/05/17 14:55:16;;;;;;;0.73;0.40;;;18.20;1.00;;;;;;4974454;28;20510;-70
2023/05/17 14:57:44;;;;;;;0.70;0.40;;;17.90;1.00;;;;;;4974209;28;20465;-71
2023/05/17 15:00:13;;;;;;;0.60;0.10;;;17.90;1.00;;;;;;4974751;28;20450;-71
2023/05/17 15:02:42;;;;;;;1.00;0.43;;;17.90;1.00;;;;;;4970313;28;20545;-69
2023/05/17 15:05:11;;;;;;;0.60;0.10;;;17.90;1.00;;;;;;4958415;28;20450;-70
2023/05/17 15:07:39;;;;;;;0.60;0.10;;;18.10;1.00;;;;;;4974062;28;21005;-71
2023/05/17 15:10:08;;;;;;;0.60;0.20;;;18.10;1.00;;;;;;4974361;28;20560;-69
2023/05/17 15:12:36;;;;;;;1.47;0.73;;;18.30;1.00;;;;;;4975536;28;20521;-71
2023/05/17 15:15:05;;;;;;;0.60;0.20;;;18.00;1.00;;;;;;4975342;28;21008;-71
2023/05/17 15:17:33;;;;;;;0.60;0.10;;;18.10;1.00;;;;;;4970968;28;20478;-71
2023/05/17 15:20:02;;;;;;;0.60;0.10;;;18.10;1.00;;;;;;4977216;28;20450;-72
2023/05/17 15:22:30;;;;;;;0.60;0.10;;;18.30;1.00;;;;;;4981449;28;20487;-70
2023/05/17 15:24:58;;;;;;;0.70;0.33;;;18.60;1.00;;;;;;4971949;28;20454;-70
2023/05/17 15:27:26;;;;;;;0.60;0.30;;;18.80;1.00;;;;;;4958888;28;20486;-71
2023/05/17 15:29:54;;;;;;;0.60;0.10;;;18.80;1.00;;;;;;4958076;29;20461;-70
2023/05/17 15:32:22;;;;;;;0.60;0.10;;;19.10;1.00;;;;;;4959432;28;20551;-71
2023/05/17 15:34:51;;;;;;;0.70;0.40;;;19.10;1.00;;;;;;4975597;28;20462;-71
2023/05/17 15:37:20;;;;;;;0.60;0.20;;;18.90;1.00;;;;;;4975340;28;20477;-72
2023/05/17 15:39:48;;;;;;;0.80;0.30;;;18.80;1.00;;;;;;4974806;28;20445;-70
2023/05/17 15:42:16;;;;;;;0.60;0.10;;;18.60;1.00;;;;;;4966689;28;20849;-71
2023/05/17 15:44:44;;;;;;;0.60;0.20;;;18.60;1.00;;;;;;4975251;28;21042;-71
2023/05/17 15:47:12;;;;;;;1.37;0.40;;;18.40;1.00;;;;;;4974406;28;20543;-70
2023/05/17 15:49:40;;;;;;;0.60;0.13;;;18.50;1.00;;;;;;4974504;28;20796;-70
2023/05/17 15:52:08;;;;;;;0.60;0.10;;;18.60;1.00;;;;;;4974653;28;20855;-70
2023/05/17 15:54:37;;;;;;;0.60;0.10;;;18.80;1.00;;;;;;4973882;28;20470;-69
2023/05/17 15:57:06;;;;;;;0.60;0.10;;;18.80;1.00;;;;;;4974215;28;20631;-71
2023/05/17 15:59:34;;;;;;;0.60;0.20;;;18.80;1.00;;;;;;4974472;28;20456;-70
2023/05/17 16:02:02;;;;;;;0.60;0.20;;;19.30;1.00;;;;;;4973991;28;20539;-70
2023/05/17 16:04:30;;;;;;;1.00;0.40;;;19.40;1.00;;;;;;4973579;28;20470;-69
2023/05/17 16:06:58;;;;;;;0.90;0.77;;;19.30;1.00;;;;;;4964925;28;20447;-71
2023/05/17 16:09:26;;;;;;;1.33;0.27;;;19.30;1.00;;;;;;4962781;28;20544;-69
2023/05/17 16:11:55;;;;;;;0.60;0.20;;;19.40;1.00;;;;;;4970106;28;20472;-71
2023/05/17 16:14:23;;;;;;;2.30;0.30;;;19.60;1.00;;;;;;4975547;28;20446;-70
2023/05/17 16:16:51;;;;;;;0.60;0.20;;;19.60;1.00;;;;;;4974076;28;20453;-70
2023/05/17 16:19:19;;;;;;;0.60;0.20;;;19.70;1.00;;;;;;4973023;28;20532;-70
2023/05/17 16:21:49;;;;;;;0.60;0.10;;;19.60;1.00;;;;;;4972740;28;20514;-69
2023/05/17 16:24:20;;;;;;;0.63;0.23;;;19.80;1.00;;;;;;4973761;28;20564;-72
2023/05/17 16:26:48;;;;;;;0.60;0.10;;;19.80;1.00;;;;;;4958905;28;20493;-68
2023/05/17 16:29:17;;;;;;;0.60;0.20;;;19.70;1.00;;;;;;4964071;28;20480;-71
2023/05/17 16:31:47;;;;;;;0.60;0.20;;;19.80;1.00;;;;;;4975342;28;20824;-71
2023/05/17 16:34:15;;;;;;;0.70;0.70;;;19.80;1.00;;;;;;4965379;28;20491;-72
2023/05/17 16:36:46;;;;;;;0.70;0.23;;;19.70;1.00;;;;;;4975128;28;20537;-71
2023/05/17 16:39:14;;;;;;;0.60;0.20;;;19.70;1.00;;;;;;4974716;28;20462;-72
2023/05/17 16:41:42;;;;;;;0.60;0.20;;;19.70;1.00;;;;;;4974612;28;20457;-72
2023/05/17 16:44:10;;;;;;;0.60;0.10;;;19.80;1.00;;;;;;4973603;28;20485;-71
2023/05/17 16:46:39;;;;;;;2.00;1.90;;;20.00;1.00;;;;;;4967864;28;20613;-70
2023/05/17 16:49:07;;;;;;;0.60;0.10;;;20.10;1.00;;;;;;4972095;28;20505;-69
2023/05/17 16:51:35;;;;;;;2.87;0.80;;;20.10;1.00;;;;;;4967694;28;20507;-70
2023/05/17 16:54:03;;;;;;;0.60;0.10;;;20.10;1.00;;;;;;4972452;28;20442;-69
2023/05/17 16:56:31;;;;;;;0.77;0.40;;;20.20;1.00;;;;;;4974803;28;20549;-69
2023/05/17 16:58:59;;;;;;;0.60;0.20;;;20.10;1.00;;;;;;4974848;28;20474;-70
2023/05/17 17:01:27;;;;;;;0.60;0.10;;;20.10;1.00;;;;;;4974511;28;20447;-69
2023/05/17 17:03:56;;;;;;;0.70;0.40;;;20.00;1.00;;;;;;4974641;28;20481;-69
2023/05/17 17:06:24;;;;;;;0.60;0.20;;;19.80;1.00;;;;;;4974724;28;20442;-69
2023/05/17 17:08:52;;;;;;;0.60;0.20;;;19.80;1.00;;;;;;4973434;28;20476;-71
2023/05/17 17:11:21;;;;;;;0.60;0.10;;;19.90;1.00;;;;;;4973631;28;20462;-71